Airfield :







YOU CAN JOIN US ON...

 
LOGIN :

Register | Disclaimer

   EN    FR    IT 

 









Legend :    VFR   Marginal VFR   IFR   Intensive IFR   Very Intensive IFR
Visi :
Ceiling :
>= 8 km
>= 3000ft
5 to 8 km
1000 to 3000 ft
1500m to 5 km
500 to 1000 ft
800 to 1500m
200 to 500 ft
< 800m
< 200 ft
Symbols :   Thunderstorms  Fog  Heavy snow  Heavy precipitations  Wind > 20 kt






- Airport Elevation : 1442 ft
- IATA code : ZUM


CZUM - Churchill Falls

CURRENT METAR :
  • 240600Z AUTO 00000KT 9SM CLR M29/M32 A3004 RMK SLP227

EXPIRED METARs :
  • 240500Z AUTO 04004KT 9SM CLR M29/M32 A3002 RMK SLP221
  • 240400Z AUTO 04002KT 9SM CLR M29/M33 A3001 RMK SLP216

TAF TAF CZUM
Valid from the 24 at 02:00 until the 24 at 14:00 UTC


240138Z 2402/2414 01005KT P6SM SKC
FM241200 10010KT P6SM BKN120 RMK FCST BASED ON AUTO OBS. NXT FCST BY 240800Z



MET'MAP, your aeronautical weather chart ! - Copyright ORBIFLY December 2007 - Disclaimer

ORBIFLY MET'MAP TEAM :

Programming & Development : Alexandra Zaïnal
Concept & original design : Baudouin d'Aumeries
Assistance for programming : Marc-Olivier Méhu
Technical & hardware support : Manuel Goepfert

Contact : metmap@orbifly.com




SOURCES & CREDITS :

   NOAA